createdAt,value
2017-07-28T00:02:23.943Z,3.47
2017-07-28T00:04:52.209Z,3.17
2017-07-28T00:07:20.533Z,2.87
2017-07-28T00:09:48.791Z,3.70
2017-07-28T00:12:17.059Z,3.67
2017-07-28T00:14:46.141Z,3.50
2017-07-28T00:17:15.179Z,3.95
2017-07-28T00:19:43.441Z,3.72
2017-07-28T00:22:11.908Z,3.70
2017-07-28T00:24:40.175Z,3.15
2017-07-28T00:27:08.448Z,3.58
2017-07-28T00:29:36.749Z,3.83
2017-07-28T00:32:05.783Z,3.30
2017-07-28T00:34:34.049Z,3.58
2017-07-28T00:37:02.343Z,3.75
2017-07-28T00:39:31.417Z,3.40
2017-07-28T00:41:59.667Z,3.83
2017-07-28T00:44:27.989Z,3.40
2017-07-28T00:46:56.251Z,3.95
2017-07-28T00:49:24.523Z,4.05
2017-07-28T00:51:52.825Z,4.32
2017-07-28T00:54:21.847Z,4.78
2017-07-28T00:56:50.117Z,4.85
2017-07-28T00:59:18.419Z,3.95
2017-07-28T01:01:47.456Z,4.43
2017-07-28T01:04:15.719Z,4.80
2017-07-28T01:06:44.032Z,4.10
2017-07-28T01:09:13.059Z,4.15
2017-07-28T01:11:41.324Z,4.12
2017-07-28T01:14:09.624Z,4.03
2017-07-28T01:16:38.655Z,4.35
2017-07-28T01:19:06.916Z,4.60
2017-07-28T01:21:35.216Z,4.62
2017-07-28T01:24:03.480Z,4.43
2017-07-28T01:26:31.743Z,4.05
2017-07-28T01:29:00.068Z,4.07
2017-07-28T01:31:28.335Z,4.60
2017-07-28T01:33:56.591Z,4.68
2017-07-28T01:36:24.892Z,4.95
2017-07-28T01:38:53.944Z,5.18
2017-07-28T01:41:22.200Z,4.80
2017-07-28T01:43:50.528Z,4.50
2017-07-28T01:46:18.792Z,4.60
2017-07-28T01:48:47.077Z,4.80
2017-07-28T01:51:15.399Z,4.03
2017-07-28T01:53:44.429Z,4.70
2017-07-28T01:56:12.695Z,4.35
2017-07-28T01:58:41.091Z,4.00
2017-07-28T02:01:09.364Z,4.53
2017-07-28T02:03:38.021Z,3.90
2017-07-28T02:06:07.085Z,4.55
2017-07-28T02:08:36.852Z,4.50
2017-07-28T02:11:05.107Z,4.15
2017-07-28T02:13:33.412Z,4.20
2017-07-28T02:16:02.459Z,3.65
2017-07-28T02:18:30.728Z,4.70
2017-07-28T02:20:59.056Z,3.92
2017-07-28T02:23:27.337Z,3.10
2017-07-28T02:25:55.779Z,4.20
2017-07-28T02:28:24.079Z,3.55
2017-07-28T02:30:52.348Z,3.92
2017-07-28T02:33:20.611Z,3.85
2017-07-28T02:35:48.916Z,4.25
2017-07-28T02:38:17.184Z,4.18
2017-07-28T02:40:45.472Z,4.15
2017-07-28T02:43:13.791Z,3.75
2017-07-28T02:45:42.067Z,4.30
2017-07-28T02:48:10.327Z,4.18
2017-07-28T02:50:38.765Z,3.78
2017-07-28T02:53:07.796Z,3.83
2017-07-28T02:55:36.976Z,3.75
2017-07-28T02:58:05.284Z,4.05
2017-07-28T03:00:34.324Z,4.20
2017-07-28T03:03:02.595Z,4.75
2017-07-28T03:05:30.899Z,4.57
2017-07-28T03:07:59.932Z,4.05
2017-07-28T03:10:28.203Z,3.75
2017-07-28T03:12:56.708Z,4.75
2017-07-28T03:15:24.972Z,4.10
2017-07-28T03:17:53.239Z,4.20
2017-07-28T03:20:21.544Z,3.85
2017-07-28T03:22:49.807Z,4.03
2017-07-28T03:25:18.083Z,4.00
2017-07-28T03:27:46.392Z,3.62
2017-07-28T03:30:14.695Z,4.62
2017-07-28T03:32:42.968Z,4.28
2017-07-28T03:35:11.260Z,4.25
2017-07-28T03:37:39.522Z,4.25
2017-07-28T03:40:07.807Z,4.12
2017-07-28T03:42:36.099Z,4.60
2017-07-28T03:45:04.371Z,4.70
2017-07-28T03:47:32.632Z,4.47
2017-07-28T03:50:00.945Z,4.72
2017-07-28T03:52:29.205Z,4.00
2017-07-28T03:54:57.468Z,4.75
2017-07-28T03:57:25.771Z,4.45
2017-07-28T03:59:54.047Z,4.72
2017-07-28T04:02:22.313Z,4.10
2017-07-28T04:04:50.629Z,4.70
2017-07-28T04:07:18.955Z,3.75
2017-07-28T04:09:47.223Z,4.18
2017-07-28T04:12:15.519Z,3.95
2017-07-28T04:14:44.040Z,3.78
2017-07-28T04:17:13.086Z,3.80
2017-07-28T04:19:41.383Z,3.83
2017-07-28T04:22:10.412Z,4.20
2017-07-28T04:24:38.673Z,5.28
2017-07-28T04:27:06.963Z,3.95
2017-07-28T04:29:35.223Z,4.68
2017-07-28T04:32:03.496Z,3.80
2017-07-28T04:34:32.676Z,4.50
2017-07-28T04:37:01.703Z,4.53
2017-07-28T04:39:29.967Z,4.35
2017-07-28T04:41:58.272Z,4.75
2017-07-28T04:44:26.540Z,4.47
2017-07-28T04:46:55.602Z,4.70
2017-07-28T04:49:23.907Z,4.85
2017-07-28T04:51:52.175Z,4.07
2017-07-28T04:54:20.548Z,4.18
2017-07-28T04:56:48.856Z,5.15
2017-07-28T04:59:17.120Z,4.78
2017-07-28T05:01:45.393Z,4.10
2017-07-28T05:04:14.460Z,4.43
2017-07-28T05:06:42.739Z,4.68
2017-07-28T05:09:11.768Z,5.00
2017-07-28T05:11:40.072Z,4.57
2017-07-28T05:14:09.104Z,4.75
2017-07-28T05:16:37.364Z,5.20
2017-07-28T05:19:05.667Z,4.50
2017-07-28T05:21:33.928Z,5.65
2017-07-28T05:24:02.197Z,4.90
2017-07-28T05:26:31.260Z,6.00
2017-07-28T05:28:59.541Z,4.82
2017-07-28T05:31:28.567Z,5.10
2017-07-28T05:33:56.863Z,5.20
2017-07-28T05:36:25.131Z,5.12
2017-07-28T05:38:54.172Z,5.62
2017-07-28T05:41:22.765Z,6.10
2017-07-28T05:43:51.050Z,5.60
2017-07-28T05:46:19.299Z,6.00
2017-07-28T05:48:47.623Z,6.00
2017-07-28T05:51:15.895Z,5.30
2017-07-28T05:53:44.167Z,5.65
2017-07-28T05:56:12.475Z,5.47
2017-07-28T05:58:40.748Z,4.95
2017-07-28T06:01:09.008Z,4.95
2017-07-28T06:03:37.316Z,5.12
2017-07-28T06:06:05.587Z,4.65
2017-07-28T06:08:33.860Z,4.50
2017-07-28T06:11:02.959Z,4.65
2017-07-28T06:13:31.219Z,5.30
2017-07-28T06:15:59.488Z,5.20
2017-07-28T06:21:02.404Z,4.40
2017-07-28T06:23:30.731Z,4.57
2017-07-28T06:25:59.000Z,3.97
2017-07-28T06:28:27.276Z,4.47
2017-07-28T06:30:55.576Z,5.10
2017-07-28T06:33:24.029Z,3.10
2017-07-28T06:35:52.287Z,4.37
2017-07-28T06:38:20.601Z,3.50
2017-07-28T06:40:48.871Z,3.85
2017-07-28T06:43:17.136Z,4.53
2017-07-28T06:45:45.439Z,3.60
2017-07-28T06:48:13.707Z,3.72
2017-07-28T06:50:41.991Z,3.50
2017-07-28T06:53:11.079Z,5.00
2017-07-28T06:55:39.352Z,3.30
2017-07-28T06:58:07.628Z,3.47
2017-07-28T07:00:35.927Z,3.65
2017-07-28T07:03:04.204Z,3.30
2017-07-28T07:05:33.232Z,2.75
2017-07-28T07:08:01.522Z,2.92
2017-07-28T07:10:29.787Z,2.90
2017-07-28T07:12:58.060Z,2.95
2017-07-28T07:15:27.139Z,3.45
2017-07-28T07:17:56.172Z,2.40
2017-07-28T07:20:24.431Z,5.50
2017-07-28T07:22:52.740Z,2.72
2017-07-28T07:25:20.995Z,2.50
2017-07-28T07:27:49.259Z,2.90
2017-07-28T07:30:18.539Z,2.58
2017-07-28T07:32:46.808Z,2.75
2017-07-28T07:35:15.839Z,2.20
2017-07-28T07:37:44.161Z,2.47
2017-07-28T07:40:13.196Z,2.10
2017-07-28T07:42:41.470Z,2.33
2017-07-28T07:45:09.875Z,1.95
2017-07-28T07:47:38.188Z,2.12
2017-07-28T07:50:06.452Z,2.28
2017-07-28T07:52:34.770Z,1.92
2017-07-28T07:55:03.042Z,2.00
2017-07-28T07:57:31.309Z,1.40
2017-07-28T07:59:59.636Z,1.42
2017-07-28T08:02:28.672Z,2.10
2017-07-28T08:04:56.931Z,1.80
2017-07-28T08:07:25.218Z,1.92
2017-07-28T08:09:54.280Z,1.40
2017-07-28T08:12:23.064Z,1.20
2017-07-28T08:14:51.547Z,2.58
2017-07-28T08:17:19.864Z,1.80
2017-07-28T08:19:48.128Z,1.50
2017-07-28T08:22:16.418Z,1.75
2017-07-28T08:24:44.684Z,1.40
2017-07-28T08:27:12.944Z,1.30
2017-07-28T08:29:41.282Z,1.27
2017-07-28T08:32:09.537Z,2.00
2017-07-28T08:34:37.804Z,1.40
2017-07-28T08:37:06.116Z,1.73
2017-07-28T08:39:34.403Z,1.30
2017-07-28T08:42:02.671Z,1.50
2017-07-28T08:44:31.183Z,1.40
2017-07-28T08:46:59.450Z,1.10
2017-07-28T08:49:28.483Z,1.60
2017-07-28T08:51:56.793Z,1.40
2017-07-28T08:54:25.824Z,1.17
2017-07-28T08:56:54.096Z,1.50
2017-07-28T08:59:22.387Z,1.60
2017-07-28T09:01:51.415Z,1.40
2017-07-28T09:04:19.684Z,1.20
2017-07-28T09:06:48.096Z,1.30
2017-07-28T09:09:17.128Z,1.50
2017-07-28T09:11:45.392Z,1.33
2017-07-28T09:14:14.408Z,1.62
2017-07-28T09:16:43.455Z,1.90
2017-07-28T09:19:11.724Z,2.20
2017-07-28T09:21:40.017Z,1.52
2017-07-28T09:24:09.043Z,1.70
2017-07-28T09:26:37.307Z,1.35
2017-07-28T09:29:05.601Z,1.58
2017-07-28T09:31:33.869Z,1.40
2017-07-28T09:34:02.132Z,1.70
2017-07-28T09:36:30.435Z,1.30
2017-07-28T09:38:58.700Z,1.70
2017-07-28T09:41:26.972Z,1.20
2017-07-28T09:43:55.287Z,1.75
2017-07-28T09:46:24.315Z,1.30
2017-07-28T09:48:52.584Z,1.45
2017-07-28T09:51:20.888Z,1.85
2017-07-28T09:53:49.923Z,1.95
2017-07-28T09:56:18.179Z,1.40
2017-07-28T09:58:46.496Z,1.60
2017-07-28T10:01:15.533Z,1.58
2017-07-28T10:03:43.808Z,1.42
2017-07-28T10:06:12.619Z,1.73
2017-07-28T10:08:40.882Z,1.10
2017-07-28T10:11:09.276Z,1.17
2017-07-28T10:13:37.579Z,1.60
2017-07-28T10:16:06.615Z,1.40
2017-07-28T10:18:34.888Z,1.10
2017-07-28T10:21:03.183Z,1.70
2017-07-28T10:23:32.220Z,1.30
2017-07-28T10:26:00.483Z,1.05
2017-07-28T10:28:28.787Z,1.40
2017-07-28T10:30:57.824Z,1.10
2017-07-28T10:33:26.092Z,1.55
2017-07-28T10:35:54.412Z,1.33
2017-07-28T10:38:22.675Z,1.20
2017-07-28T10:40:50.951Z,1.30
2017-07-28T10:43:19.247Z,1.15
2017-07-28T10:45:47.514Z,1.37
2017-07-28T10:48:15.784Z,1.23
2017-07-28T10:50:44.103Z,1.55
2017-07-28T10:53:12.370Z,1.12
2017-07-28T10:55:40.643Z,1.10
2017-07-28T10:58:08.965Z,1.35
2017-07-28T11:00:37.251Z,1.20
2017-07-28T11:03:05.527Z,1.00
2017-07-28T11:05:34.134Z,1.48
2017-07-28T11:08:03.176Z,1.33
2017-07-28T11:10:31.456Z,1.52
2017-07-28T11:12:59.751Z,2.30
2017-07-28T11:15:28.028Z,1.40
2017-07-28T11:17:56.279Z,1.20
2017-07-28T11:20:24.577Z,1.05
2017-07-28T11:22:52.844Z,1.77
2017-07-28T11:25:21.136Z,1.33
2017-07-28T11:27:50.213Z,1.40
2017-07-28T11:30:18.484Z,1.55
2017-07-28T11:32:47.524Z,1.10
2017-07-28T11:35:15.831Z,1.95
2017-07-28T11:37:44.859Z,2.00
2017-07-28T11:40:13.896Z,1.75
2017-07-28T11:42:42.980Z,1.50
2017-07-28T11:45:11.248Z,1.65
2017-07-28T11:47:39.527Z,1.42
2017-07-28T11:50:07.852Z,1.40
2017-07-28T11:52:36.892Z,2.00
2017-07-28T11:55:05.959Z,1.40
2017-07-28T11:57:34.273Z,1.40
2017-07-28T12:00:03.309Z,1.35
2017-07-28T12:02:40.420Z,1.20
2017-07-28T12:05:09.458Z,1.20
2017-07-28T12:07:38.016Z,1.25
2017-07-28T12:10:06.338Z,1.50
2017-07-28T12:12:34.609Z,1.30
2017-07-28T12:15:02.876Z,1.30
2017-07-28T12:17:31.191Z,1.55
2017-07-28T12:20:00.036Z,1.00
2017-07-28T12:22:28.299Z,1.27
2017-07-28T12:24:56.629Z,1.65
2017-07-28T12:27:24.902Z,1.30
2017-07-28T12:29:53.167Z,1.40
2017-07-28T12:32:21.498Z,1.40
2017-07-28T12:34:50.532Z,0.98
2017-07-28T12:37:18.808Z,1.20
2017-07-28T12:39:47.204Z,1.23
2017-07-28T12:42:16.238Z,1.58
2017-07-28T12:44:44.504Z,1.60
2017-07-28T12:47:12.812Z,1.10
2017-07-28T12:49:41.224Z,1.60
2017-07-28T12:52:09.496Z,1.70
2017-07-28T12:54:37.807Z,1.35
2017-07-28T12:57:06.072Z,1.50
2017-07-28T12:59:34.344Z,1.30
2017-07-28T13:02:02.660Z,1.55
2017-07-28T13:04:30.927Z,1.20
2017-07-28T13:06:59.955Z,1.40
2017-07-28T13:09:28.260Z,1.20
2017-07-28T13:11:56.768Z,1.70
2017-07-28T13:14:25.044Z,1.70
2017-07-28T13:16:53.343Z,1.48
2017-07-28T13:19:21.612Z,1.52
2017-07-28T13:21:50.643Z,1.50
2017-07-28T13:24:18.947Z,2.05
2017-07-28T13:26:47.221Z,1.08
2017-07-28T13:29:16.243Z,1.92
2017-07-28T13:31:44.547Z,2.05
2017-07-28T13:34:12.816Z,1.83
2017-07-28T13:36:41.340Z,1.60
2017-07-28T13:39:09.631Z,1.40
2017-07-28T13:41:37.900Z,1.67
2017-07-28T13:44:06.168Z,1.83
2017-07-28T13:46:40.993Z,1.98
2017-07-28T13:49:10.036Z,1.45
2017-07-28T13:51:38.304Z,1.65
2017-07-28T13:54:06.632Z,2.08
2017-07-28T13:56:34.899Z,2.25
2017-07-28T13:59:03.184Z,1.60
2017-07-28T14:01:31.479Z,1.80
2017-07-28T14:04:00.520Z,2.00
2017-07-28T14:06:28.792Z,1.90
2017-07-28T14:08:57.117Z,1.50
2017-07-28T14:11:25.383Z,1.40
2017-07-28T14:13:53.656Z,1.80
2017-07-28T14:16:21.980Z,1.67
2017-07-28T14:18:50.244Z,1.70
2017-07-28T14:21:18.519Z,1.35
2017-07-28T14:23:46.832Z,1.75
2017-07-28T14:26:15.109Z,1.75
2017-07-28T14:28:44.139Z,1.65
2017-07-28T14:31:12.856Z,1.73
2017-07-28T14:33:41.887Z,1.25
2017-07-28T14:36:10.172Z,1.45
2017-07-28T14:38:38.460Z,1.55
2017-07-28T14:41:07.499Z,1.98
2017-07-28T14:43:35.772Z,1.85
2017-07-28T14:46:04.091Z,1.37
2017-07-28T14:48:32.359Z,1.95
2017-07-28T14:51:00.636Z,1.62
2017-07-28T14:53:28.977Z,1.50
2017-07-28T14:55:57.240Z,1.62
2017-07-28T14:58:25.516Z,1.98
2017-07-28T15:00:53.833Z,1.90
2017-07-28T15:03:22.868Z,3.33
2017-07-28T15:05:51.130Z,1.67
2017-07-28T15:08:19.449Z,1.75
2017-07-28T15:10:47.735Z,1.67
2017-07-28T15:13:15.999Z,1.62
2017-07-28T15:15:44.399Z,1.87
2017-07-28T15:18:12.675Z,1.90
2017-07-28T15:20:41.711Z,1.77
2017-07-28T15:23:10.935Z,1.50
2017-07-28T15:25:39.976Z,1.70
2017-07-28T15:28:08.239Z,1.67
2017-07-28T15:30:36.548Z,1.40
2017-07-28T15:33:05.579Z,2.12
2017-07-28T15:35:33.843Z,1.77
2017-07-28T15:38:02.280Z,1.83
2017-07-28T15:40:30.552Z,1.70
2017-07-28T15:42:59.136Z,1.90
2017-07-28T15:45:27.432Z,2.83
2017-07-28T15:47:57.044Z,1.55
2017-07-28T15:50:26.099Z,1.75
2017-07-28T15:52:54.480Z,2.20
2017-07-28T15:55:23.508Z,1.50
2017-07-28T15:57:51.767Z,1.75
2017-07-28T16:00:20.098Z,1.67
2017-07-28T16:02:48.370Z,1.70
2017-07-28T16:05:16.643Z,1.67
2017-07-28T16:07:44.950Z,1.77
2017-07-28T16:10:13.227Z,2.58
2017-07-28T16:12:42.268Z,1.70
2017-07-28T16:15:10.759Z,1.62
2017-07-28T16:17:39.791Z,1.90
2017-07-28T16:20:08.064Z,1.58
2017-07-28T16:22:36.367Z,1.50
2017-07-28T16:25:05.408Z,1.40
2017-07-28T16:27:33.685Z,1.80
2017-07-28T16:30:01.984Z,2.00
2017-07-28T16:32:30.441Z,1.85
2017-07-28T16:34:59.471Z,1.85
2017-07-28T16:37:28.288Z,2.05
2017-07-28T16:39:56.548Z,1.75
2017-07-28T16:42:25.591Z,1.70
2017-07-28T16:44:53.904Z,2.90
2017-07-28T16:47:22.180Z,1.70
2017-07-28T16:49:50.448Z,1.60
2017-07-28T16:52:18.759Z,2.25
2017-07-28T16:54:47.248Z,2.25
2017-07-28T16:57:16.275Z,1.52
2017-07-28T16:59:44.584Z,1.70
2017-07-28T17:02:15.320Z,2.05
2017-07-28T17:04:43.615Z,1.98
2017-07-28T17:07:11.900Z,1.95
2017-07-28T17:09:40.175Z,2.05
2017-07-28T17:12:08.493Z,2.10
2017-07-28T17:14:36.763Z,2.47
2017-07-28T17:17:05.023Z,1.77
2017-07-28T17:19:33.333Z,1.90
2017-07-28T17:22:02.368Z,2.30
2017-07-28T17:24:30.644Z,2.33
2017-07-28T17:26:58.943Z,2.97
2017-07-28T17:29:27.212Z,1.92
2017-07-28T17:31:55.511Z,1.98
2017-07-28T17:34:23.807Z,2.40
2017-07-28T17:36:52.076Z,1.80
2017-07-28T17:39:21.107Z,2.25
2017-07-28T17:41:49.608Z,1.90
2017-07-28T17:44:17.880Z,2.33
2017-07-28T17:46:46.912Z,1.75
2017-07-28T17:49:15.237Z,2.37
2017-07-28T17:51:44.271Z,2.35
2017-07-28T17:54:12.553Z,2.00
2017-07-28T17:56:40.859Z,1.70
2017-07-28T17:59:09.132Z,1.50
2017-07-28T18:01:37.403Z,1.90
2017-07-28T18:04:05.813Z,2.00
2017-07-28T18:06:34.843Z,2.70
2017-07-28T18:09:03.108Z,1.90
2017-07-28T18:11:31.415Z,2.28
2017-07-28T18:14:00.439Z,2.10
2017-07-28T18:16:28.723Z,2.00
2017-07-28T18:18:57.013Z,2.25
2017-07-28T18:21:26.044Z,1.90
2017-07-28T18:23:54.311Z,2.50
2017-07-28T18:26:22.659Z,1.80
2017-07-28T18:28:51.172Z,1.70
2017-07-28T18:31:19.448Z,2.55
2017-07-28T18:33:48.524Z,2.03
2017-07-28T18:36:17.575Z,2.42
2017-07-28T18:38:45.850Z,2.00
2017-07-28T18:41:14.148Z,2.28
2017-07-28T18:43:42.411Z,2.30
2017-07-28T18:46:10.680Z,1.98
2017-07-28T18:48:38.984Z,2.00
2017-07-28T18:51:07.255Z,2.75
2017-07-28T18:53:35.531Z,2.50
2017-07-28T18:56:04.614Z,3.65
2017-07-28T18:58:33.836Z,3.08
2017-07-28T19:01:02.108Z,2.87
2017-07-28T19:03:30.427Z,2.90
2017-07-28T19:05:59.459Z,3.10
2017-07-28T19:08:27.747Z,3.40
2017-07-28T19:10:56.047Z,2.42
2017-07-28T19:13:24.316Z,2.70
2017-07-28T19:15:52.580Z,3.10
2017-07-28T19:18:20.883Z,2.58
2017-07-28T19:20:49.168Z,2.87
2017-07-28T19:23:18.195Z,2.65
2017-07-28T19:25:46.500Z,2.33
2017-07-28T19:28:14.776Z,2.70
2017-07-28T19:30:43.059Z,2.20
2017-07-28T19:33:11.377Z,2.40
2017-07-28T19:35:39.652Z,3.22
2017-07-28T19:38:07.911Z,2.92
2017-07-28T19:40:36.215Z,2.50
2017-07-28T19:43:04.479Z,3.35
2017-07-28T19:45:32.747Z,3.15
2017-07-28T19:48:01.047Z,4.00
2017-07-28T19:50:29.344Z,2.78
2017-07-28T19:52:58.375Z,3.00
2017-07-28T19:55:26.863Z,3.40
2017-07-28T19:57:55.903Z,2.87
2017-07-28T20:00:24.171Z,3.12
2017-07-28T20:02:52.480Z,2.55
2017-07-28T20:05:21.513Z,3.00
2017-07-28T20:07:49.809Z,3.25
2017-07-28T20:10:18.127Z,3.28
2017-07-28T20:12:46.398Z,2.83
2017-07-28T20:15:14.727Z,2.80
2017-07-28T20:17:43.047Z,3.60
2017-07-28T20:20:11.328Z,3.50
2017-07-28T20:22:40.379Z,3.03
2017-07-28T20:25:08.671Z,3.75
2017-07-28T20:27:37.703Z,3.30
2017-07-28T20:30:05.976Z,3.42
2017-07-28T20:32:34.287Z,3.25
2017-07-28T20:35:02.559Z,3.90
2017-07-28T20:37:30.832Z,3.35
2017-07-28T20:39:59.140Z,3.35
2017-07-28T20:42:27.411Z,3.60
2017-07-28T20:44:56.444Z,3.25
2017-07-28T20:47:24.740Z,3.75
2017-07-28T20:49:53.015Z,4.47
2017-07-28T20:52:22.057Z,3.45
2017-07-28T20:54:50.368Z,3.75
2017-07-28T20:57:18.636Z,4.07
2017-07-28T20:59:46.903Z,4.70
2017-07-28T21:02:15.220Z,3.62
2017-07-28T21:04:43.499Z,3.75
2017-07-28T21:07:12.542Z,4.75
2017-07-28T21:09:40.820Z,3.75
2017-07-28T21:12:09.308Z,3.47
2017-07-28T21:14:37.595Z,4.55
2017-07-28T21:17:05.909Z,4.12
2017-07-28T21:22:09.610Z,3.75
2017-07-28T21:24:37.881Z,4.35
2017-07-28T21:27:06.919Z,4.40
2017-07-28T21:29:35.231Z,4.30
2017-07-28T21:32:03.515Z,4.85
2017-07-28T21:34:31.807Z,4.85
2017-07-28T21:37:00.105Z,5.03
2017-07-28T21:39:29.139Z,4.60
2017-07-28T21:41:58.416Z,5.18
2017-07-28T21:44:26.726Z,4.10
2017-07-28T21:46:55.755Z,5.00
2017-07-28T21:49:24.251Z,4.43
2017-07-28T21:51:53.043Z,3.90
2017-07-28T21:54:21.304Z,4.03
2017-07-28T21:56:50.354Z,4.00
2017-07-28T21:59:18.638Z,4.22
2017-07-28T22:01:46.905Z,4.10
2017-07-28T22:04:15.936Z,3.95
2017-07-28T22:06:44.263Z,4.12
2017-07-28T22:09:13.305Z,4.32
2017-07-28T22:11:41.567Z,3.85
2017-07-28T22:14:09.883Z,5.45
2017-07-28T22:16:38.151Z,4.65
2017-07-28T22:19:06.415Z,5.12
2017-07-28T22:21:35.315Z,4.12
2017-07-28T22:24:03.609Z,4.45
2017-07-28T22:26:31.873Z,4.35
2017-07-28T22:29:00.953Z,4.57
2017-07-28T22:31:30.016Z,4.80
2017-07-28T22:33:58.276Z,3.58
2017-07-28T22:36:26.583Z,4.30
2017-07-28T22:38:54.858Z,4.43
2017-07-28T22:41:23.148Z,3.75
2017-07-28T22:43:51.452Z,4.80
2017-07-28T22:46:19.729Z,3.80
2017-07-28T22:48:47.996Z,3.92
2017-07-28T22:51:16.420Z,4.35
2017-07-28T22:53:45.468Z,3.60
2017-07-28T22:56:13.743Z,3.55
2017-07-28T22:58:42.036Z,4.12
2017-07-28T23:01:11.072Z,3.90
2017-07-28T23:03:40.140Z,4.40
2017-07-28T23:06:08.471Z,3.90
2017-07-28T23:08:36.748Z,3.83
2017-07-28T23:11:05.011Z,3.97
2017-07-28T23:13:33.542Z,4.75
2017-07-28T23:16:01.801Z,4.60
2017-07-28T23:18:30.836Z,4.85
2017-07-28T23:21:00.051Z,4.87
2017-07-28T23:23:28.329Z,3.95
2017-07-28T23:25:57.372Z,4.22
2017-07-28T23:28:25.683Z,4.18
2017-07-28T23:30:53.972Z,4.32
2017-07-28T23:33:22.244Z,5.95
2017-07-28T23:35:50.557Z,6.25
2017-07-28T23:38:19.584Z,4.35
2017-07-28T23:40:47.860Z,4.35
2017-07-28T23:43:16.168Z,4.20
2017-07-28T23:45:44.444Z,4.45
2017-07-28T23:48:12.722Z,5.43
2017-07-28T23:50:41.029Z,3.90
2017-07-28T23:53:10.069Z,3.83
2017-07-28T23:55:38.328Z,3.85
2017-07-28T23:58:06.632Z,3.42
